Time;durP1;ratioP1;P1;durP2;ratioP2;P2;SDS_P1;SDS_P2;PMS_P1;PMS_P2;Temp;Humidity;BMP_temperature;BMP_pressure;BME280_temperature;BME280_humidity;BME280_pressure;Samples;Min_cycle;Max_cycle;Signal;HPM_P1;HPM_P2
2023/08/23 00:00:07;;;;;;;8.43;5.18;;;;;;;23.69;67.77;101511.97;5033174;27;99210;-66
2023/08/23 00:02:33;;;;;;;7.80;4.70;;;;;;;23.79;67.45;101517.50;5026025;27;101241;-65
2023/08/23 00:05:00;;;;;;;9.82;4.90;;;;;;;23.64;67.95;101513.28;5025724;27;96832;-64
2023/08/23 00:07:28;;;;;;;10.52;4.63;;;;;;;23.50;68.55;101517.06;5030041;27;97110;-64
2023/08/23 00:09:54;;;;;;;12.77;4.53;;;;;;;23.74;67.38;101514.31;5028087;27;99026;-64
2023/08/23 00:12:21;;;;;;;10.02;4.93;;;;;;;23.73;67.49;101508.06;5028603;27;98825;-65
2023/08/23 00:14:47;;;;;;;15.05;5.15;;;;;;;23.82;66.85;101515.44;5029100;27;97684;-65
2023/08/23 00:17:13;;;;;;;8.93;4.72;;;;;;;23.53;68.12;101508.75;5030434;27;98157;-65
2023/08/23 00:19:40;;;;;;;11.77;4.75;;;;;;;23.57;68.04;101517.44;5029431;27;99321;-64
2023/08/23 00:22:06;;;;;;;10.05;4.70;;;;;;;23.68;67.03;101518.34;5024442;27;100507;-65
2023/08/23 00:24:34;;;;;;;11.90;4.63;;;;;;;23.56;67.25;101513.91;5027725;27;97859;-66
2023/08/23 00:27:01;;;;;;;8.88;4.50;;;;;;;23.48;67.23;101518.19;5029298;27;96775;-65
2023/08/23 00:29:27;;;;;;;9.48;4.50;;;;;;;23.59;67.06;101516.38;5024217;27;97856;-65
2023/08/23 00:31:53;;;;;;;12.80;4.32;;;;;;;23.47;67.16;101519.13;5029677;27;99518;-65
2023/08/23 00:34:20;;;;;;;6.32;4.10;;;;;;;23.68;66.26;101514.78;5027508;27;99089;-65
2023/08/23 00:36:46;;;;;;;6.97;4.03;;;;;;;23.49;66.77;101514.50;5026521;27;96843;-65
2023/08/23 00:39:13;;;;;;;9.30;3.83;;;;;;;23.82;65.81;101510.03;5023729;27;99676;-65
2023/08/23 00:41:41;;;;;;;7.70;4.10;;;;;;;23.62;65.86;101512.56;5026902;27;98913;-65
2023/08/23 00:44:07;;;;;;;5.70;4.18;;;;;;;23.85;65.29;101511.63;5028397;27;96660;-65
2023/08/23 00:46:34;;;;;;;10.73;5.50;;;;;;;23.76;65.45;101518.59;5026372;27;97048;-65
2023/08/23 00:49:00;;;;;;;7.22;4.22;;;;;;;23.92;64.83;101520.09;5029345;27;100863;-65
2023/08/23 00:51:27;;;;;;;7.55;3.75;;;;;;;23.86;64.98;101513.34;5026957;27;99013;-66
2023/08/23 00:53:53;;;;;;;9.98;4.10;;;;;;;23.95;64.33;101519.88;5028290;27;96781;-65
2023/08/23 00:56:20;;;;;;;8.35;4.13;;;;;;;23.92;64.52;101531.75;5022508;27;97097;-66
2023/08/23 00:58:48;;;;;;;8.82;3.92;;;;;;;23.82;64.55;101523.53;5023685;27;99018;-66
2023/08/23 01:01:14;;;;;;;11.77;4.43;;;;;;;23.87;64.48;101525.84;5024248;27;99171;-65
2023/08/23 01:03:41;;;;;;;10.38;3.88;;;;;;;23.60;66.00;101528.00;5025118;27;97849;-65
2023/08/23 01:06:20;;;;;;;10.23;4.45;;;;;;;23.59;66.82;101532.53;5028349;27;98932;-65
2023/08/23 01:08:59;;;;;;;10.52;4.18;;;;;;;23.60;65.93;101531.56;5026062;27;99082;-64
2023/08/23 01:11:37;;;;;;;7.13;3.97;;;;;;;23.36;66.90;101528.91;5023849;27;98907;-65
2023/08/23 01:14:06;;;;;;;6.35;3.90;;;;;;;23.25;68.43;101534.25;5022301;27;96866;-66
2023/08/23 01:16:35;;;;;;;5.70;4.22;;;;;;;23.44;67.76;101531.84;5027369;27;97117;-65
2023/08/23 01:19:07;;;;;;;7.07;4.05;;;;;;;23.43;68.13;101529.31;5028237;27;99001;-65
2023/08/23 01:21:38;;;;;;;8.88;4.70;;;;;;;23.35;68.28;101535.28;5021352;27;102200;-63
2023/08/23 01:24:09;;;;;;;9.65;4.45;;;;;;;23.26;68.32;101529.72;5026829;27;96823;-64
2023/08/23 01:26:36;;;;;;;10.10;4.50;;;;;;;23.21;68.35;101531.91;5022525;27;96808;-64
2023/08/23 01:29:03;;;;;;;10.07;4.10;;;;;;;23.49;67.14;101530.69;5024098;27;98711;-66
2023/08/23 01:31:33;;;;;;;10.93;4.68;;;;;;;23.37;68.10;101527.03;5022000;27;99055;-66
2023/08/23 01:34:09;;;;;;;10.57;4.22;;;;;;;23.38;68.29;101518.84;5028841;27;96799;-66
2023/08/23 01:36:39;;;;;;;10.75;4.55;;;;;;;23.32;69.04;101522.00;5026049;27;97073;-66
2023/08/23 01:39:08;;;;;;;16.48;4.47;;;;;;;23.40;68.79;101521.44;5028994;27;99084;-66
2023/08/23 01:41:35;;;;;;;9.25;4.40;;;;;;;23.32;69.13;101516.63;5028188;27;99071;-66
2023/08/23 01:44:01;;;;;;;10.68;4.32;;;;;;;23.16;70.04;101518.78;5029271;27;96954;-66
2023/08/23 01:46:29;;;;;;;12.77;4.50;;;;;;;23.00;71.34;101529.00;5028860;27;96962;-66
2023/08/23 01:48:55;;;;;;;10.65;4.30;;;;;;;23.15;71.11;101527.84;5029573;27;99643;-66
2023/08/23 01:51:22;;;;;;;5.28;4.10;;;;;;;23.22;71.14;101530.94;5029822;27;100732;-65
2023/08/23 01:53:48;;;;;;;15.85;4.68;;;;;;;23.17;70.96;101528.56;5031073;27;97729;-64
2023/08/23 01:56:16;;;;;;;11.43;4.90;;;;;;;23.27;70.16;101526.03;5028919;27;96927;-64
2023/08/23 01:58:42;;;;;;;9.05;3.97;;;;;;;22.91;70.68;101535.91;5031048;27;98905;-64
2023/08/23 02:01:08;;;;;;;6.38;3.95;;;;;;;23.02;70.36;101527.91;5029476;27;97661;-64
2023/08/23 02:03:35;;;;;;;7.32;4.07;;;;;;;23.12;69.74;101533.44;5031106;27;99419;-64
2023/08/23 02:06:01;;;;;;;5.28;3.97;;;;;;;23.06;69.15;101528.53;5028678;27;96868;-64
2023/08/23 02:08:27;;;;;;;11.40;4.00;;;;;;;23.25;68.89;101528.84;5029466;27;99239;-64
2023/08/23 02:10:54;;;;;;;9.38;4.70;;;;;;;23.00;69.44;101534.38;5033069;27;98980;-65
2023/08/23 02:13:21;;;;;;;13.93;4.30;;;;;;;23.05;69.12;101521.41;5031814;27;96780;-65
2023/08/23 02:15:48;;;;;;;6.18;4.13;;;;;;;23.42;68.14;101523.03;5037286;27;96928;-65
2023/08/23 02:18:15;;;;;;;8.65;4.45;;;;;;;23.41;67.71;101520.47;5031572;27;99621;-66
2023/08/23 02:20:41;;;;;;;9.80;4.35;;;;;;;23.28;68.02;101523.25;5029532;27;98763;-66
2023/08/23 02:23:07;;;;;;;6.47;4.18;;;;;;;23.32;67.75;101519.31;5030981;27;97751;-66
2023/08/23 02:25:34;;;;;;;15.15;4.65;;;;;;;23.28;68.05;101517.84;5031920;27;96985;-66
2023/08/23 02:28:00;;;;;;;8.52;4.03;;;;;;;23.29;67.98;101514.19;5028563;27;99357;-66
2023/08/23 02:30:28;;;;;;;9.50;4.05;;;;;;;23.07;68.59;101508.69;5026954;27;98959;-66
2023/08/23 02:32:54;;;;;;;9.80;4.75;;;;;;;23.17;68.01;101508.88;5029468;27;96727;-66
2023/08/23 02:35:20;;;;;;;7.22;4.30;;;;;;;23.15;68.48;101511.66;5030244;27;98211;-65
2023/08/23 02:37:47;;;;;;;11.02;5.40;;;;;;;23.05;69.14;101510.63;5030435;27;98868;-65
2023/08/23 02:40:14;;;;;;;9.63;4.60;;;;;;;23.12;69.57;101505.63;5023200;27;99271;-65
2023/08/23 02:42:40;;;;;;;13.32;4.80;;;;;;;23.24;68.75;101504.69;5029553;27;97138;-65
2023/08/23 02:45:07;;;;;;;11.35;4.47;;;;;;;22.96;69.78;101508.66;5032532;27;96773;-65
2023/08/23 02:47:35;;;;;;;7.25;4.40;;;;;;;22.90;70.11;101511.81;5022346;27;99995;-65
2023/08/23 02:50:02;;;;;;;7.75;4.35;;;;;;;22.83;70.81;101505.16;5030983;27;99259;-65
2023/08/23 02:52:29;;;;;;;14.25;5.55;;;;;;;22.96;70.93;101505.94;5028102;27;96899;-65
2023/08/23 02:54:55;;;;;;;9.07;4.60;;;;;;;22.96;71.00;101506.81;5032110;27;96990;-65
2023/08/23 02:57:22;;;;;;;10.90;5.07;;;;;;;22.63;72.20;101509.28;5028514;27;102094;-65
2023/08/23 02:59:48;;;;;;;7.90;4.60;;;;;;;22.75;72.24;101511.09;5029468;27;98773;-65
2023/08/23 03:02:18;;;;;;;10.05;4.82;;;;;;;22.66;73.14;101509.91;5022362;27;97527;-65
2023/08/23 03:04:46;;;;;;;5.80;4.38;;;;;;;22.48;74.19;101513.97;5027346;27;97116;-65
2023/08/23 03:07:12;;;;;;;6.68;4.85;;;;;;;22.68;72.74;101517.88;5030199;27;99418;-66
2023/08/23 03:09:39;;;;;;;9.88;4.90;;;;;;;22.92;71.42;101512.53;5030917;27;97501;-65
2023/08/23 03:12:06;;;;;;;11.10;4.80;;;;;;;22.80;71.32;101511.63;5031378;27;96802;-67
2023/08/23 03:14:33;;;;;;;8.73;4.80;;;;;;;22.71;71.85;101508.72;5029252;27;98448;-66
2023/08/23 03:16:59;;;;;;;11.82;4.97;;;;;;;22.69;70.83;101513.38;5027412;27;98925;-66
2023/08/23 03:19:25;;;;;;;8.77;5.70;;;;;;;22.79;71.12;101509.03;5026232;27;101097;-65
2023/08/23 03:21:53;;;;;;;8.43;5.03;;;;;;;22.76;71.04;101507.44;5029485;27;96869;-66
2023/08/23 03:24:19;;;;;;;12.23;5.20;;;;;;;22.77;71.14;101505.63;5027104;27;97909;-65
2023/08/23 03:26:46;;;;;;;12.40;5.15;;;;;;;22.42;72.52;101500.97;5027759;27;101302;-66
2023/08/23 03:29:12;;;;;;;10.43;4.82;;;;;;;22.50;73.27;101512.03;5029489;27;97519;-65
2023/08/23 03:31:39;;;;;;;11.20;4.82;;;;;;;22.47;73.62;101509.56;5027165;27;97165;-65
2023/08/23 03:34:05;;;;;;;7.97;5.63;;;;;;;22.45;73.98;101511.47;5030482;27;97034;-65
2023/08/23 03:36:31;;;;;;;8.77;5.63;;;;;;;22.27;74.99;101515.53;5026099;27;99433;-65
2023/08/23 03:38:59;;;;;;;9.65;4.97;;;;;;;22.21;75.48;101508.75;5028756;27;99081;-65
2023/08/23 03:41:25;;;;;;;9.65;4.85;;;;;;;22.42;74.10;101510.88;5028049;27;96872;-65
2023/08/23 03:43:52;;;;;;;9.52;4.93;;;;;;;22.50;73.80;101513.88;5030707;27;97002;-65
2023/08/23 03:46:22;;;;;;;11.18;5.32;;;;;;;22.51;73.13;101518.28;5028519;27;98941;-65
2023/08/23 03:48:49;;;;;;;12.65;5.40;;;;;;;22.35;74.12;101518.53;5026595;27;98821;-63
2023/08/23 03:51:15;;;;;;;11.82;5.55;;;;;;;22.40;74.17;101520.88;5025444;27;97453;-64
2023/08/23 03:53:42;;;;;;;9.77;5.20;;;;;;;22.41;74.38;101520.78;5024144;27;97190;-64
2023/08/23 03:56:09;;;;;;;10.55;5.22;;;;;;;22.26;74.74;101521.88;5027478;27;99222;-64
2023/08/23 03:58:36;;;;;;;7.03;4.93;;;;;;;22.25;75.15;101514.78;5030168;27;99167;-65
2023/08/23 04:01:02;;;;;;;7.85;5.47;;;;;;;22.31;75.05;101519.72;5028874;27;96834;-64
2023/08/23 04:03:29;;;;;;;10.90;6.72;;;;;;;22.16;75.91;101523.53;5027734;27;97208;-64
2023/08/23 04:05:55;;;;;;;10.52;6.10;;;;;;;22.18;75.30;101519.75;5021207;27;99886;-64
2023/08/23 04:08:22;;;;;;;12.48;5.90;;;;;;;22.28;75.12;101509.16;5026407;27;98977;-65
2023/08/23 04:10:48;;;;;;;9.45;5.63;;;;;;;22.19;75.06;101512.50;5026473;27;96805;-66
2023/08/23 04:13:17;;;;;;;11.70;5.50;;;;;;;22.21;74.68;101510.59;5031706;27;97479;-65
2023/08/23 04:15:44;;;;;;;12.88;5.30;;;;;;;22.09;75.19;101519.53;5028294;27;98840;-65
2023/08/23 04:18:10;;;;;;;8.68;5.25;;;;;;;22.25;74.85;101509.41;5030662;27;99123;-65
2023/08/23 04:20:37;;;;;;;10.60;5.43;;;;;;;22.22;74.44;101518.56;5024844;27;97136;-65
2023/08/23 04:23:04;;;;;;;10.88;5.57;;;;;;;22.18;74.35;101509.00;5028809;27;99047;-65
2023/08/23 04:25:30;;;;;;;11.65;5.10;;;;;;;22.29;74.13;101520.81;5025723;27;99169;-64
2023/08/23 04:27:57;;;;;;;8.55;5.22;;;;;;;22.58;72.73;101515.00;5030295;27;98786;-64
2023/08/23 04:30:24;;;;;;;9.50;5.05;;;;;;;22.36;73.79;101514.00;5027647;27;96735;-64
2023/08/23 04:32:51;;;;;;;8.38;5.45;;;;;;;22.40;73.30;101510.97;5030305;27;96955;-64
2023/08/23 04:35:17;;;;;;;11.77;5.90;;;;;;;22.57;72.59;101510.63;5029861;27;99112;-65
2023/08/23 04:37:43;;;;;;;8.35;5.53;;;;;;;22.43;72.94;101512.59;5029457;27;97736;-64
2023/08/23 04:40:13;;;;;;;6.22;5.30;;;;;;;22.41;73.25;101515.38;5028358;27;97096;-64
2023/08/23 04:42:39;;;;;;;13.57;6.28;;;;;;;22.62;72.37;101519.22;5029174;27;96909;-65
2023/08/23 04:45:06;;;;;;;9.88;5.78;;;;;;;22.66;72.21;101522.53;5025684;27;99225;-65
2023/08/23 04:47:34;;;;;;;11.82;5.45;;;;;;;22.67;72.16;101519.72;5019330;27;98893;-65
2023/08/23 04:50:00;;;;;;;9.90;5.18;;;;;;;22.80;71.89;101511.63;5025431;27;97290;-65
2023/08/23 04:52:28;;;;;;;10.02;5.40;;;;;;;22.90;71.20;101522.59;5028033;27;98746;-66
2023/08/23 04:54:54;;;;;;;12.80;5.22;;;;;;;23.03;70.98;101515.31;5028104;27;99953;-65
2023/08/23 04:57:21;;;;;;;9.25;5.38;;;;;;;22.92;71.09;101526.00;5026902;27;98891;-65
2023/08/23 04:59:47;;;;;;;16.83;6.05;;;;;;;23.06;70.21;101512.34;5024734;27;96838;-66
2023/08/23 05:02:13;;;;;;;12.43;5.88;;;;;;;23.12;69.98;101511.88;5027154;27;97916;-66
2023/08/23 05:04:41;;;;;;;17.00;6.15;;;;;;;23.17;69.80;101525.03;5029249;27;98974;-66
2023/08/23 05:07:07;;;;;;;8.15;5.65;;;;;;;23.18;70.03;101513.25;5027182;27;101803;-66
2023/08/23 05:09:34;;;;;;;8.98;5.90;;;;;;;23.34;69.19;101520.06;5028101;27;96996;-66
2023/08/23 05:12:00;;;;;;;10.25;5.25;;;;;;;23.53;68.27;101515.97;5027368;27;96890;-66
2023/08/23 05:14:26;;;;;;;13.95;4.78;;;;;;;23.38;69.10;101516.16;5025693;27;101513;-66
2023/08/23 05:16:53;;;;;;;10.02;5.55;;;;;;;23.63;67.66;101527.78;5025869;27;99120;-66
2023/08/23 05:19:19;;;;;;;8.02;5.00;;;;;;;23.68;66.79;101514.78;5022056;27;96750;-66
2023/08/23 05:21:47;;;;;;;9.70;5.25;;;;;;;23.86;66.45;101518.75;5027161;27;97682;-66
2023/08/23 05:24:13;;;;;;;11.88;5.53;;;;;;;23.86;66.60;101517.88;5028038;27;98997;-67
2023/08/23 05:26:40;;;;;;;9.18;4.95;;;;;;;23.77;66.40;101524.84;5026075;27;99107;-65
2023/08/23 05:29:06;;;;;;;9.82;5.50;;;;;;;23.91;66.32;101527.31;5021011;27;97688;-65
2023/08/23 05:31:32;;;;;;;10.88;5.32;;;;;;;24.04;65.54;101521.81;5020400;27;96975;-66
2023/08/23 05:33:59;;;;;;;7.38;4.93;;;;;;;24.29;64.73;101521.59;5022938;27;99028;-65
2023/08/23 05:36:25;;;;;;;15.45;4.97;;;;;;;24.12;64.66;101517.53;5025057;27;98872;-65
2023/08/23 05:38:53;;;;;;;10.15;4.78;;;;;;;24.28;63.65;101521.72;5026885;27;96810;-65
2023/08/23 05:41:19;;;;;;;7.45;4.80;;;;;;;24.47;63.32;101519.25;5026639;27;96953;-65
2023/08/23 05:43:46;;;;;;;8.70;4.60;;;;;;;24.42;63.05;101519.59;5026491;27;98737;-65
2023/08/23 05:46:12;;;;;;;8.82;4.95;;;;;;;24.61;63.01;101532.50;5025839;27;100857;-65
2023/08/23 05:48:38;;;;;;;5.20;3.88;;;;;;;24.80;61.86;101537.25;5023404;27;97181;-65
2023/08/23 05:51:05;;;;;;;7.45;4.32;;;;;;;24.70;61.99;101539.84;5026960;27;96793;-65
2023/08/23 05:53:32;;;;;;;6.78;4.60;;;;;;;24.68;61.71;101538.25;5024248;27;99423;-66
2023/08/23 05:56:00;;;;;;;9.82;4.45;;;;;;;24.81;60.89;101526.28;5024613;27;98831;-66
2023/08/23 05:58:26;;;;;;;9.15;4.30;;;;;;;24.83;60.83;101521.63;5027187;27;98491;-66
2023/08/23 06:00:55;;;;;;;12.85;3.90;;;;;;;25.01;59.70;101522.81;5026120;27;96980;-65
2023/08/23 06:03:21;;;;;;;7.07;3.85;;;;;;;24.99;59.17;101532.91;5017126;27;99355;-65
2023/08/23 06:05:49;;;;;;;6.57;4.00;;;;;;;25.13;58.50;101522.78;5021684;27;97496;-65
2023/08/23 06:08:15;;;;;;;5.78;4.00;;;;;;;25.09;58.12;101527.56;5024292;27;96956;-64
2023/08/23 06:10:42;;;;;;;11.23;4.10;;;;;;;25.20;58.07;101527.56;5024128;27;98376;-64
2023/08/23 06:13:09;;;;;;;9.90;4.38;;;;;;;25.33;57.56;101530.94;5026497;27;100089;-65
2023/08/23 06:15:36;;;;;;;7.22;3.63;;;;;;;25.36;57.12;101519.84;5027310;27;97693;-65
2023/08/23 06:18:03;;;;;;;9.52;4.10;;;;;;;25.56;56.34;101514.56;5026336;27;97879;-64
2023/08/23 06:20:29;;;;;;;11.43;3.90;;;;;;;25.74;55.85;101519.25;5024854;27;97097;-65
2023/08/23 06:22:56;;;;;;;11.25;4.18;;;;;;;25.64;56.15;101525.63;5023602;27;99558;-65
2023/08/23 06:25:23;;;;;;;15.77;4.78;;;;;;;25.93;55.59;101521.22;5024405;27;98873;-65
2023/08/23 06:27:49;;;;;;;5.28;3.85;;;;;;;25.66;56.09;101526.34;5028383;27;96810;-65
2023/08/23 06:30:17;;;;;;;6.63;4.22;;;;;;;26.19;54.64;101524.31;5030856;27;97130;-64
2023/08/23 06:32:46;;;;;;;6.93;3.65;;;;;;;26.15;54.30;101523.75;5020827;27;99195;-64
2023/08/23 06:35:13;;;;;;;6.07;3.75;;;;;;;26.57;53.06;101535.34;5027918;27;99289;-65
2023/08/23 06:37:39;;;;;;;7.85;3.95;;;;;;;26.35;53.03;101529.28;5028783;27;102138;-66
2023/08/23 06:40:08;;;;;;;9.05;3.90;;;;;;;26.66;52.79;101536.34;5027989;27;97703;-65
2023/08/23 06:42:37;;;;;;;7.65;4.50;;;;;;;26.83;52.76;101534.84;5016852;27;99284;-65
2023/08/23 06:45:04;;;;;;;6.85;3.95;;;;;;;26.52;52.82;101534.88;5021884;27;100068;-66
2023/08/23 06:47:33;;;;;;;8.00;4.00;;;;;;;26.81;52.39;101531.38;5030475;27;96962;-66
2023/08/23 06:49:59;;;;;;;7.57;3.47;;;;;;;26.79;52.24;101536.94;5029029;27;96833;-65
2023/08/23 06:52:26;;;;;;;12.10;3.78;;;;;;;26.88;52.10;101538.81;5028064;27;99447;-65
2023/08/23 06:54:52;;;;;;;9.95;4.53;;;;;;;26.94;52.10;101534.72;5028799;27;98847;-65
2023/08/23 06:57:21;;;;;;;10.45;4.20;;;;;;;26.87;52.03;101530.81;5027294;27;98120;-65
2023/08/23 06:59:50;;;;;;;6.78;3.92;;;;;;;26.95;51.64;101539.16;5024931;27;96932;-66
2023/08/23 07:02:16;;;;;;;8.52;3.47;;;;;;;26.98;51.98;101534.28;5027467;27;98119;-66
2023/08/23 07:04:44;;;;;;;6.68;4.00;;;;;;;27.26;51.45;101532.59;5022949;27;98796;-66
2023/08/23 07:07:10;;;;;;;8.63;3.72;;;;;;;27.31;50.79;101538.44;5021415;27;97303;-64
2023/08/23 07:09:37;;;;;;;8.77;3.83;;;;;;;27.32;50.66;101533.88;5026845;27;97485;-63
2023/08/23 07:12:03;;;;;;;6.85;3.10;;;;;;;27.25;49.96;101528.16;5025367;27;99554;-64
2023/08/23 07:14:30;;;;;;;7.50;2.50;;;;;;;27.66;48.03;101528.88;5022874;27;97961;-65
2023/08/23 07:16:56;;;;;;;4.97;2.13;;;;;;;27.90;45.47;101537.38;5031359;27;97688;-65
2023/08/23 07:19:23;;;;;;;3.10;2.03;;;;;;;28.67;42.88;101531.63;5023181;27;97854;-64
2023/08/23 07:21:50;;;;;;;3.58;2.03;;;;;;;29.07;41.84;101541.28;5025018;27;98869;-63
2023/08/23 07:24:17;;;;;;;8.73;2.65;;;;;;;29.26;41.41;101532.94;5023812;27;99324;-64
2023/08/23 07:26:43;;;;;;;8.75;2.35;;;;;;;28.93;41.48;101535.38;5028399;27;96793;-64
2023/08/23 07:29:11;;;;;;;7.40;2.20;;;;;;;28.60;41.99;101535.97;5026697;27;96936;-63
2023/08/23 07:31:38;;;;;;;5.22;2.28;;;;;;;28.72;42.14;101536.63;5023905;27;98382;-64
2023/08/23 07:34:04;;;;;;;4.43;2.65;;;;;;;28.70;42.05;101539.47;5029705;27;98716;-64
2023/08/23 07:36:31;;;;;;;6.28;2.58;;;;;;;28.96;41.67;101539.63;5024602;27;98691;-64
2023/08/23 07:38:58;;;;;;;5.50;2.17;;;;;;;29.08;41.42;101540.28;5026911;27;97751;-65
2023/08/23 07:41:25;;;;;;;4.47;1.80;;;;;;;29.26;41.40;101541.13;5022831;27;99462;-64
2023/08/23 07:43:51;;;;;;;3.67;1.83;;;;;;;29.66;40.47;101538.75;5028355;27;99380;-65
2023/08/23 07:46:18;;;;;;;5.25;1.85;;;;;;;29.69;40.85;101546.59;5023560;27;96829;-65
2023/08/23 07:48:44;;;;;;;3.35;1.75;;;;;;;29.58;40.38;101541.41;5025357;27;97263;-66
2023/08/23 07:51:10;;;;;;;6.47;1.92;;;;;;;29.76;40.26;101556.84;5025845;27;100046;-65
2023/08/23 07:53:37;;;;;;;4.10;2.00;;;;;;;29.41;40.55;101546.88;5029028;27;100003;-65
2023/08/23 07:56:06;;;;;;;3.80;1.70;;;;;;;29.69;40.78;101545.75;5025425;27;97442;-64
2023/08/23 07:58:34;;;;;;;4.80;1.90;;;;;;;29.65;40.70;101547.94;5023685;27;98664;-65
2023/08/23 08:01:00;;;;;;;5.78;1.85;;;;;;;29.40;41.60;101556.06;5025839;27;99020;-65
2023/08/23 08:03:28;;;;;;;2.80;1.70;;;;;;;29.30;41.70;101556.13;5022372;27;101669;-65
2023/08/23 08:05:55;;;;;;;4.47;2.17;;;;;;;29.12;42.68;101560.72;5026048;27;96943;-65
2023/08/23 08:08:21;;;;;;;6.00;2.15;;;;;;;29.06;42.41;101554.03;5022621;27;98366;-63
2023/08/23 08:10:49;;;;;;;5.32;2.10;;;;;;;29.20;42.51;101555.34;5022587;27;100635;-63
2023/08/23 08:13:17;;;;;;;12.52;3.40;;;;;;;29.50;41.93;101554.97;5027446;27;99379;-64
2023/08/23 08:15:43;;;;;;;10.23;2.35;;;;;;;29.57;41.80;101556.03;5021273;27;99123;-64
2023/08/23 08:18:10;;;;;;;6.38;2.92;;;;;;;29.58;41.36;101544.16;5025810;27;96944;-64
2023/08/23 08:20:36;;;;;;;15.98;3.15;;;;;;;29.75;41.44;101555.13;5018867;27;99330;-64
2023/08/23 08:23:02;;;;;;;11.68;3.05;;;;;;;30.08;40.63;101551.66;5021250;27;99410;-64
2023/08/23 08:25:29;;;;;;;9.13;2.80;;;;;;;29.79;41.61;101551.09;5025589;27;97638;-63
2023/08/23 08:27:55;;;;;;;7.95;2.95;;;;;;;29.75;41.74;101555.13;5024522;27;97252;-64
2023/08/23 08:30:23;;;;;;;7.00;3.22;;;;;;;29.77;41.55;101550.41;5020650;27;98268;-64
2023/08/23 08:32:49;;;;;;;2.67;2.13;;;;;;;29.69;42.43;101565.66;5016850;27;99162;-64
2023/08/23 08:35:16;;;;;;;8.75;2.55;;;;;;;29.45;42.76;101564.63;5023130;27;97843;-64
2023/08/23 08:37:42;;;;;;;5.63;3.08;;;;;;;29.53;42.38;101560.09;5021780;27;97034;-64
2023/08/23 08:40:10;;;;;;;6.47;2.38;;;;;;;29.42;42.44;101563.06;5021705;27;99845;-63
2023/08/23 08:42:37;;;;;;;5.45;2.58;;;;;;;29.39;42.67;101566.09;5028370;27;97551;-63
2023/08/23 08:45:04;;;;;;;7.22;2.22;;;;;;;29.20;43.35;101566.22;5023329;27;97646;-64
2023/08/23 08:47:32;;;;;;;8.75;2.45;;;;;;;29.33;42.91;101572.16;5025421;27;99317;-63
2023/08/23 08:49:58;;;;;;;9.20;2.85;;;;;;;29.23;43.50;101566.78;5019416;27;98962;-64
2023/08/23 08:52:26;;;;;;;7.03;2.78;;;;;;;29.25;43.14;101562.03;5025339;27;99359;-66
2023/08/23 08:54:54;;;;;;;9.50;2.72;;;;;;;29.24;43.19;101567.63;5024011;27;97301;-66
2023/08/23 08:57:22;;;;;;;4.28;2.30;;;;;;;29.49;42.50;101566.00;5025052;27;97340;-66
2023/08/23 08:59:50;;;;;;;6.85;2.53;;;;;;;29.68;42.84;101563.94;5022896;27;99416;-66
2023/08/23 09:02:19;;;;;;;7.68;2.33;;;;;;;29.57;41.45;101566.94;5022859;27;97753;-66
2023/08/23 09:04:47;;;;;;;8.55;2.55;;;;;;;29.20;42.52;101567.09;5022263;27;97220;-66
2023/08/23 09:07:14;;;;;;;5.00;2.40;;;;;;;29.47;42.18;101573.50;5016444;27;97340;-66
2023/08/23 09:09:42;;;;;;;4.70;2.22;;;;;;;29.19;41.70;101570.81;5022712;27;99314;-66
2023/08/23 09:12:09;;;;;;;11.43;2.50;;;;;;;29.39;41.68;101567.97;5018012;27;102012;-66
2023/08/23 09:14:35;;;;;;;9.20;2.63;;;;;;;29.77;40.80;101562.16;5029324;27;97320;-67
2023/08/23 09:17:01;;;;;;;9.38;2.20;;;;;;;29.88;40.27;101566.47;5022003;27;97518;-66
2023/08/23 09:19:28;;;;;;;4.57;2.13;;;;;;;29.94;39.64;101572.16;5021014;27;97106;-67
2023/08/23 09:21:58;;;;;;;6.75;2.80;;;;;;;29.68;39.90;101574.84;5027134;27;99503;-67
2023/08/23 09:24:25;;;;;;;4.50;2.20;;;;;;;29.70;40.15;101570.09;5023608;27;97623;-65
2023/08/23 09:26:51;;;;;;;7.97;2.25;;;;;;;29.19;41.16;101569.97;5021828;27;99158;-66
2023/08/23 09:29:18;;;;;;;6.97;2.45;;;;;;;29.24;41.47;101567.63;5019587;27;99404;-66
2023/08/23 09:31:44;;;;;;;6.28;2.15;;;;;;;29.59;41.39;101572.22;5025097;27;98910;-66
2023/08/23 09:34:16;;;;;;;7.20;2.40;;;;;;;29.56;40.15;101576.13;5022446;27;97099;-67
2023/08/23 09:36:43;;;;;;;9.00;2.08;;;;;;;29.73;40.67;101564.31;5020378;27;97044;-67
2023/08/23 09:39:12;;;;;;;7.18;2.03;;;;;;;29.71;39.13;101565.50;5020876;27;98709;-67
2023/08/23 09:41:40;;;;;;;8.45;2.35;;;;;;;30.05;39.15;101568.34;5024330;27;99254;-67
2023/08/23 09:44:07;;;;;;;5.57;3.30;;;;;;;29.87;39.19;101572.94;5021435;27;96999;-67
2023/08/23 09:46:34;;;;;;;4.53;1.95;;;;;;;29.73;38.91;101568.09;5025180;27;97674;-67
2023/08/23 09:49:04;;;;;;;3.53;1.63;;;;;;;29.58;39.77;101568.66;5027786;27;98939;-67
2023/08/23 09:51:34;;;;;;;6.18;1.50;;;;;;;29.80;39.57;101564.53;5026151;27;101495;-67
2023/08/23 09:54:08;;;;;;;5.40;1.63;;;;;;;30.08;39.15;101574.31;5026770;27;96970;-67
2023/08/23 09:56:37;;;;;;;4.72;2.08;;;;;;;30.06;39.24;101570.06;5026983;27;97015;-67
2023/08/23 09:59:03;;;;;;;7.03;2.00;;;;;;;30.33;38.23;101566.25;5024267;27;99315;-67
2023/08/23 10:01:31;;;;;;;8.38;1.90;;;;;;;30.23;38.05;101568.25;5025792;27;98894;-67
2023/08/23 10:03:57;;;;;;;4.95;1.90;;;;;;;30.31;38.21;101565.59;5031014;27;97067;-66
2023/08/23 10:06:25;;;;;;;6.82;2.03;;;;;;;30.77;37.35;101573.31;5032583;27;97242;-66
2023/08/23 10:08:52;;;;;;;6.43;1.42;;;;;;;31.09;36.51;101564.38;5031375;27;97814;-66
2023/08/23 10:11:19;;;;;;;4.38;1.50;;;;;;;30.99;36.31;101568.22;5025626;27;99766;-66
2023/08/23 10:13:47;;;;;;;2.75;1.50;;;;;;;31.07;35.87;101569.13;5030779;27;97558;-66
2023/08/23 10:16:15;;;;;;;3.83;1.40;;;;;;;31.02;36.19;101563.31;5031802;27;97244;-66
2023/08/23 10:18:44;;;;;;;5.70;1.42;;;;;;;30.47;37.44;101562.91;5024795;27;99148;-69
2023/08/23 10:21:10;;;;;;;5.25;1.20;;;;;;;30.31;37.33;101566.44;5030945;27;98843;-67
2023/08/23 10:23:37;;;;;;;7.55;1.70;;;;;;;30.24;37.27;101562.66;5029941;27;97133;-66
2023/08/23 10:26:04;;;;;;;4.53;1.70;;;;;;;30.22;36.67;101564.69;5028600;27;97206;-66
2023/08/23 10:28:30;;;;;;;6.20;1.40;;;;;;;30.33;37.17;101555.34;5026496;27;100126;-66
2023/08/23 10:31:01;;;;;;;12.43;1.83;;;;;;;30.38;37.39;101563.91;5028396;27;98987;-66
2023/08/23 10:33:28;;;;;;;3.45;1.10;;;;;;;30.33;37.44;101558.06;5025817;27;98350;-67
2023/08/23 10:35:54;;;;;;;3.60;1.20;;;;;;;30.17;37.13;101558.88;5027289;27;96979;-67
2023/08/23 10:38:21;;;;;;;9.85;1.58;;;;;;;30.20;37.00;101558.53;5024996;27;97919;-67
2023/08/23 10:40:49;;;;;;;3.25;1.05;;;;;;;31.03;34.90;101545.91;5028095;27;99351;-66
2023/08/23 10:43:17;;;;;;;8.65;5.13;;;;;;;30.48;35.79;101549.13;5026580;27;98652;-68
2023/08/23 10:45:52;;;;;;;2.22;1.42;;;;;;;30.11;36.58;101556.78;5029885;27;96926;-67
2023/08/23 10:48:21;;;;;;;4.88;1.20;;;;;;;29.94;37.21;101549.50;5031197;27;99655;-66
2023/08/23 10:50:48;;;;;;;6.53;2.78;;;;;;;29.77;37.62;101562.16;5027714;27;99094;-67
2023/08/23 10:53:16;;;;;;;5.22;1.73;;;;;;;29.32;38.62;101554.97;5027259;27;97517;-67
2023/08/23 10:55:43;;;;;;;6.68;1.50;;;;;;;29.57;37.81;101549.75;5029470;27;97161;-67
2023/08/23 10:58:10;;;;;;;5.15;1.90;;;;;;;29.34;37.85;101556.72;5028725;27;99039;-67
2023/08/23 11:00:37;;;;;;;3.67;1.25;;;;;;;29.76;37.09;101548.69;5023056;27;98075;-66
2023/08/23 11:03:05;;;;;;;4.90;1.10;;;;;;;30.07;36.61;101553.50;5021151;27;97624;-66
2023/08/23 11:05:33;;;;;;;3.97;1.45;;;;;;;30.13;36.63;101551.19;5027549;27;97345;-66
2023/08/23 11:08:00;;;;;;;3.63;1.40;;;;;;;30.15;36.06;101552.72;5029415;27;99270;-67
2023/08/23 11:10:27;;;;;;;5.15;1.60;;;;;;;29.64;37.32;101551.69;5024990;27;99031;-67
2023/08/23 11:12:53;;;;;;;10.18;1.70;;;;;;;29.54;37.76;101545.44;5030633;27;97690;-67
2023/08/23 11:15:21;;;;;;;3.88;1.60;;;;;;;29.23;37.91;101541.41;5027380;27;97111;-67
2023/08/23 11:17:47;;;;;;;7.85;2.20;;;;;;;29.26;37.65;101549.28;5023747;27;98921;-66
2023/08/23 11:20:14;;;;;;;4.07;1.20;;;;;;;29.21;37.98;101540.75;5019590;27;97513;-66